Time;durP1;ratioP1;P1;durP2;ratioP2;P2;SDS_P1;SDS_P2;PMS_P1;PMS_P2;Temp;Humidity;BMP_temperature;BMP_pressure;BME280_temperature;BME280_humidity;BME280_pressure;Samples;Min_cycle;Max_cycle;Signal;HPM_P1;HPM_P2
2022/05/02 00:00:11;;;;;;;16.08;8.35;;;;;;;14.80;26.32;99592.34;5000862;28;20136;-70
2022/05/02 00:02:37;;;;;;;11.38;6.50;;;;;;;14.89;26.00;99597.41;5016955;28;20072;-71
2022/05/02 00:05:04;;;;;;;14.82;6.45;;;;;;;14.94;25.89;99594.19;5017100;28;20093;-71
2022/05/02 00:07:30;;;;;;;18.55;6.28;;;;;;;14.87;25.71;99585.22;5016853;28;20139;-71
2022/05/02 00:09:56;;;;;;;12.27;6.90;;;;;;;14.86;25.65;99589.78;4984566;28;20156;-73
2022/05/02 00:12:21;;;;;;;12.82;6.70;;;;;;;14.91;25.82;99584.66;5000475;28;20052;-70
2022/05/02 00:14:47;;;;;;;21.25;7.40;;;;;;;14.93;25.81;99600.53;5000330;28;20044;-70
2022/05/02 00:17:13;;;;;;;14.05;7.60;;;;;;;14.82;25.88;99566.25;5000633;28;20106;-70
2022/05/02 00:19:39;;;;;;;15.52;7.78;;;;;;;14.93;26.06;99590.66;4984360;28;20083;-71
2022/05/02 00:22:04;;;;;;;16.50;7.47;;;;;;;14.95;26.03;99594.00;5000317;28;20051;-70
2022/05/02 00:24:31;;;;;;;17.88;8.40;;;;;;;14.94;25.99;99584.31;5000418;28;20041;-71
2022/05/02 00:26:57;;;;;;;18.83;8.40;;;;;;;14.94;26.06;99580.81;5016844;28;20044;-71
2022/05/02 00:29:23;;;;;;;18.25;8.15;;;;;;;14.92;26.13;99585.50;4984293;28;20468;-71
2022/05/02 00:31:48;;;;;;;17.35;9.30;;;;;;;14.92;26.07;99585.50;4983947;28;20210;-70
2022/05/02 00:34:14;;;;;;;20.45;8.50;;;;;;;14.91;26.08;99584.66;4983715;28;20041;-70
2022/05/02 00:36:40;;;;;;;23.05;9.05;;;;;;;14.89;26.20;99586.72;5016337;28;20048;-71
2022/05/02 00:39:06;;;;;;;20.45;8.00;;;;;;;14.94;26.29;99586.16;5016220;28;20048;-71
2022/05/02 00:41:32;;;;;;;18.95;8.60;;;;;;;14.93;26.24;99581.81;5016197;28;20416;-71
2022/05/02 00:43:58;;;;;;;16.98;8.38;;;;;;;14.83;26.30;99579.44;5033070;28;20040;-71
2022/05/02 00:46:26;;;;;;;19.45;8.25;;;;;;;14.72;26.69;99565.72;5016276;28;20082;-72
2022/05/02 00:48:52;;;;;;;19.02;8.80;;;;;;;14.76;26.67;99572.34;5016599;28;20053;-71
2022/05/02 00:51:19;;;;;;;18.92;8.20;;;;;;;14.75;26.75;99581.38;5049438;28;20127;-70
2022/05/02 00:53:46;;;;;;;24.20;8.02;;;;;;;14.72;26.85;99573.72;5016194;28;20045;-70
2022/05/02 00:56:13;;;;;;;18.52;7.93;;;;;;;14.66;26.85;99577.16;5032364;28;20111;-71
2022/05/02 00:58:38;;;;;;;22.35;7.75;;;;;;;14.52;26.94;99568.13;5016224;28;20045;-70
2022/05/02 01:01:05;;;;;;;16.58;7.43;;;;;;;14.55;27.00;99572.25;4999671;28;20481;-71
2022/05/02 01:03:32;;;;;;;14.60;7.55;;;;;;;14.56;27.06;99566.72;5049328;28;20045;-71
2022/05/02 01:08:44;;;;;;;16.05;6.70;;;;;;;14.58;27.21;99562.03;5035280;28;20095;-71
2022/05/02 01:11:10;;;;;;;15.82;7.15;;;;;;;14.39;27.50;99557.25;5016368;28;20143;-71
2022/05/02 01:13:40;;;;;;;17.17;7.80;;;;;;;14.41;27.58;99560.56;5032904;28;20123;-70
2022/05/02 01:16:15;;;;;;;13.70;7.25;;;;;;;14.50;27.42;99558.66;4983726;28;20102;-71
2022/05/02 01:18:45;;;;;;;15.43;7.10;;;;;;;14.35;27.59;99523.91;4999804;28;20512;-70
2022/05/02 01:21:23;;;;;;;12.82;6.55;;;;;;;14.67;27.29;99552.06;5049294;28;20099;-70
2022/05/02 01:23:51;;;;;;;15.90;6.47;;;;;;;14.57;27.48;99551.53;5016152;28;20060;-70
2022/05/02 01:26:17;;;;;;;16.65;7.63;;;;;;;14.42;27.43;99535.50;4999891;28;20040;-70
2022/05/02 01:28:48;;;;;;;16.40;6.90;;;;;;;14.62;27.33;99552.63;4999691;28;20057;-71
2022/05/02 01:31:15;;;;;;;19.50;7.18;;;;;;;14.45;27.76;99551.16;5036124;28;20063;-71
2022/05/02 01:33:49;;;;;;;15.45;6.97;;;;;;;14.40;27.92;99558.06;5019667;28;20041;-70
2022/05/02 01:36:16;;;;;;;15.43;7.07;;;;;;;14.25;28.03;99554.56;5036757;28;20103;-70
2022/05/02 01:38:42;;;;;;;14.90;7.05;;;;;;;14.09;28.51;99549.34;5036180;28;20110;-71
2022/05/02 01:41:09;;;;;;;18.70;6.57;;;;;;;14.11;28.42;99550.00;5019705;28;20044;-75
2022/05/02 01:43:35;;;;;;;16.58;7.40;;;;;;;13.94;28.74;99549.34;5019712;28;20047;-71
2022/05/02 01:46:01;;;;;;;16.08;7.43;;;;;;;14.03;28.79;99547.41;5036480;28;20055;-71
2022/05/02 01:48:28;;;;;;;13.45;7.13;;;;;;;13.99;28.81;99548.81;5036033;28;20132;-70
2022/05/02 01:50:54;;;;;;;15.63;7.53;;;;;;;14.05;28.77;99545.41;5035963;28;20515;-70
2022/05/02 01:53:20;;;;;;;16.70;7.05;;;;;;;14.13;28.63;99554.16;5003394;28;20056;-71
2022/05/02 01:55:46;;;;;;;14.98;7.03;;;;;;;14.09;28.60;99549.34;5019474;28;20465;-71
2022/05/02 01:58:12;;;;;;;17.60;7.32;;;;;;;14.22;28.43;99557.59;5002734;28;20083;-71
2022/05/02 02:00:38;;;;;;;15.82;7.93;;;;;;;14.22;28.59;99557.59;5019148;28;20452;-70
2022/05/02 02:03:04;;;;;;;14.60;7.13;;;;;;;14.27;28.66;99561.38;4986533;28;20047;-71
2022/05/02 02:08:38;;;;;;;13.18;7.90;;;;;;;14.46;28.58;99562.69;5018919;28;20048;-69
2022/05/02 02:11:06;;;;;;;16.38;7.80;;;;;;;14.35;28.59;99565.81;5035214;28;20072;-70
2022/05/02 02:13:32;;;;;;;14.00;7.18;;;;;;;14.22;28.75;99554.91;5003099;28;20052;-71
2022/05/02 02:15:58;;;;;;;14.93;7.65;;;;;;;14.32;28.89;99559.00;5035282;28;20527;-71
2022/05/02 02:18:24;;;;;;;18.95;7.82;;;;;;;14.29;28.78;99561.19;5002714;28;20057;-70
2022/05/02 02:20:52;;;;;;;16.48;8.27;;;;;;;14.47;28.68;99561.66;5019217;28;20051;-71
2022/05/02 02:23:19;;;;;;;15.60;8.77;;;;;;;14.46;28.44;99560.00;5018968;28;20049;-71
2022/05/02 02:25:44;;;;;;;17.05;8.93;;;;;;;14.38;28.82;99560.94;5018830;28;20041;-71
2022/05/02 02:28:12;;;;;;;21.80;8.30;;;;;;;14.45;28.65;99542.34;5018804;28;20458;-71
2022/05/02 02:30:38;;;;;;;17.50;8.23;;;;;;;14.41;28.80;99563.25;5002227;28;20380;-71
2022/05/02 02:33:04;;;;;;;14.27;8.27;;;;;;;14.41;28.86;99557.88;5002667;28;20056;-70
2022/05/02 02:35:30;;;;;;;15.75;7.85;;;;;;;14.41;28.88;99562.41;4985988;28;20044;-71
2022/05/02 02:37:56;;;;;;;18.80;8.75;;;;;;;14.52;28.75;99561.94;4986113;28;20050;-70
2022/05/02 02:40:21;;;;;;;17.70;8.90;;;;;;;14.50;28.92;99567.47;5018200;28;20580;-72
2022/05/02 02:42:47;;;;;;;17.88;8.77;;;;;;;14.54;28.70;99568.78;4985099;28;20145;-75
2022/05/02 02:45:13;;;;;;;15.38;8.35;;;;;;;14.55;28.85;99577.59;5018764;28;20488;-71
2022/05/02 02:47:39;;;;;;;17.35;8.32;;;;;;;14.60;28.61;99578.72;5051726;28;20373;-71
2022/05/02 02:50:05;;;;;;;20.88;8.82;;;;;;;14.65;28.74;99580.84;4986062;28;20036;-71
2022/05/02 02:52:31;;;;;;;14.77;8.73;;;;;;;14.57;28.94;99572.91;5018834;28;20420;-71
2022/05/02 02:54:57;;;;;;;20.73;8.60;;;;;;;14.59;28.86;99581.59;4986310;28;20608;-70
2022/05/02 02:57:23;;;;;;;22.60;8.90;;;;;;;14.65;29.00;99584.31;5001829;28;20135;-71
2022/05/02 02:59:49;;;;;;;18.38;8.88;;;;;;;14.66;29.06;99588.69;4985673;28;20041;-70
2022/05/02 03:02:15;;;;;;;22.20;9.57;;;;;;;14.65;29.28;99583.53;5018248;28;20056;-70
2022/05/02 03:07:26;;;;;;;20.92;9.10;;;;;;;14.74;29.33;99585.06;5004230;28;20041;-71
2022/05/02 03:09:52;;;;;;;19.48;8.93;;;;;;;14.75;29.54;99589.41;5017885;28;20041;-71
2022/05/02 03:12:19;;;;;;;19.45;7.90;;;;;;;14.78;29.54;99583.69;5034541;28;20178;-71
2022/05/02 03:14:45;;;;;;;31.30;9.25;;;;;;;14.81;29.26;99585.97;5001772;28;20044;-71
2022/05/02 03:17:11;;;;;;;19.63;8.23;;;;;;;14.91;29.37;99583.84;5031023;28;20057;-70
2022/05/02 03:19:38;;;;;;;18.40;8.75;;;;;;;14.96;29.01;99584.94;5014808;28;20441;-70
2022/05/02 03:22:04;;;;;;;28.85;13.52;;;;;;;14.99;28.99;99579.22;4998221;28;20073;-70
2022/05/02 03:24:30;;;;;;;21.80;9.15;;;;;;;14.96;29.10;99589.47;5014617;28;20049;-69
2022/05/02 03:26:56;;;;;;;17.25;8.18;;;;;;;15.07;29.02;99581.78;4981869;28;20132;-71
2022/05/02 03:29:21;;;;;;;20.92;8.25;;;;;;;15.10;28.92;99586.75;5014165;28;20064;-70
2022/05/02 03:31:47;;;;;;;19.33;8.65;;;;;;;15.15;28.73;99584.38;4998024;28;20045;-71
2022/05/02 03:34:13;;;;;;;21.88;8.98;;;;;;;15.19;28.85;99590.97;4997996;28;20429;-71
2022/05/02 03:36:39;;;;;;;28.50;8.70;;;;;;;15.19;28.99;99588.31;4997982;28;20106;-72
2022/05/02 03:39:05;;;;;;;16.25;8.27;;;;;;;15.43;28.61;99605.91;4981579;28;20052;-71
2022/05/02 03:41:31;;;;;;;19.52;8.70;;;;;;;15.39;28.30;99599.25;4981837;28;20155;-69
2022/05/02 03:43:57;;;;;;;19.20;8.05;;;;;;;15.51;28.20;99594.25;4981483;28;20083;-70
2022/05/02 03:46:24;;;;;;;19.35;8.27;;;;;;;15.51;28.16;99608.47;5013770;28;20041;-70
2022/05/02 03:48:49;;;;;;;14.13;7.20;;;;;;;15.52;28.17;99604.75;5014042;28;20045;-70
2022/05/02 03:51:16;;;;;;;20.60;8.43;;;;;;;15.66;28.26;99609.22;4981244;28;20068;-70
2022/05/02 03:53:41;;;;;;;16.08;8.10;;;;;;;15.62;28.22;99607.94;5013522;28;20509;-72
2022/05/02 03:56:07;;;;;;;19.40;8.48;;;;;;;15.66;28.25;99609.22;4981405;28;20043;-71
2022/05/02 03:58:33;;;;;;;22.13;8.32;;;;;;;15.64;28.20;99603.22;4997607;28;20182;-71
2022/05/02 04:00:59;;;;;;;24.20;8.90;;;;;;;15.61;28.43;99598.25;5013754;28;20060;-71
2022/05/02 04:03:25;;;;;;;24.48;9.60;;;;;;;15.53;28.56;99598.38;4981080;28;20508;-71
2022/05/02 04:05:51;;;;;;;17.23;9.10;;;;;;;15.46;28.50;99605.53;4980983;28;20497;-71
2022/05/02 04:08:16;;;;;;;20.20;9.50;;;;;;;15.44;28.46;99594.16;4997414;28;20535;-72
2022/05/02 04:10:42;;;;;;;21.67;8.38;;;;;;;15.49;28.85;99598.94;4981051;28;20080;-72
2022/05/02 04:13:08;;;;;;;17.75;8.95;;;;;;;15.57;28.97;99602.34;4981200;28;20036;-71
2022/05/02 04:15:34;;;;;;;21.95;8.90;;;;;;;15.69;28.47;99592.78;4980835;28;20037;-71
2022/05/02 04:18:00;;;;;;;18.05;8.73;;;;;;;15.92;27.95;99601.44;4980915;28;20069;-71
2022/05/02 04:20:26;;;;;;;16.45;8.43;;;;;;;16.10;28.07;99604.47;4980978;28;20434;-71
2022/05/02 04:22:52;;;;;;;20.58;9.48;;;;;;;16.28;27.76;99596.78;4997031;28;20048;-71
2022/05/02 04:25:18;;;;;;;17.17;8.38;;;;;;;16.49;27.81;99593.25;4981008;28;20045;-71
2022/05/02 04:27:43;;;;;;;20.20;8.63;;;;;;;16.65;27.55;99596.44;4980849;28;20111;-71
2022/05/02 04:30:11;;;;;;;19.67;8.65;;;;;;;16.85;27.23;99592.00;5029829;28;20060;-71
2022/05/02 04:32:37;;;;;;;19.52;8.57;;;;;;;16.92;27.19;99604.63;4997053;28;20401;-69
2022/05/02 04:35:04;;;;;;;21.65;8.35;;;;;;;16.95;27.04;99572.03;5013561;28;20486;-71
2022/05/02 04:37:30;;;;;;;13.50;7.68;;;;;;;17.18;26.98;99588.63;5013624;28;20136;-71
2022/05/02 04:39:55;;;;;;;14.70;8.00;;;;;;;17.42;26.60;99593.47;4980858;28;20136;-71
2022/05/02 04:42:22;;;;;;;15.52;7.70;;;;;;;16.96;26.38;99501.25;4980887;28;20480;-71
2022/05/02 04:44:48;;;;;;;16.77;7.55;;;;;;;17.53;26.23;99601.78;4996787;28;20140;-71
2022/05/02 04:47:14;;;;;;;16.42;7.93;;;;;;;17.65;26.21;99596.66;4996609;28;20045;-76
2022/05/02 04:49:40;;;;;;;19.00;8.38;;;;;;;17.67;26.15;99597.25;4980772;28;20073;-71
2022/05/02 04:52:06;;;;;;;14.48;8.05;;;;;;;17.72;26.38;99600.16;4980697;28;20095;-71
2022/05/02 04:54:32;;;;;;;10.30;6.30;;;;;;;17.66;25.85;99598.28;5029584;28;20049;-71
2022/05/02 04:56:57;;;;;;;14.98;7.45;;;;;;;17.69;25.99;99600.56;4997036;28;20505;-71
2022/05/02 04:59:23;;;;;;;12.10;6.90;;;;;;;17.70;25.95;99607.59;4980406;28;20041;-71
2022/05/02 05:01:49;;;;;;;14.57;7.15;;;;;;;17.73;25.88;99607.16;4996757;28;20079;-71
2022/05/02 05:04:15;;;;;;;12.02;6.32;;;;;;;17.52;26.03;99607.34;4980768;28;20056;-76
2022/05/02 05:06:41;;;;;;;14.23;6.70;;;;;;;17.36;26.11;99600.47;5017453;28;20155;-71
2022/05/02 05:09:07;;;;;;;18.58;6.70;;;;;;;17.34;25.91;99597.16;5000708;28;20564;-71
2022/05/02 05:11:59;;;;;;;19.08;6.60;;;;;;;17.62;25.51;99597.88;4984425;28;20045;-70
2022/05/02 05:17:57;;;;;;;14.98;6.90;;;;;;;17.89;25.59;99612.16;5002725;28;20057;-71
2022/05/02 05:20:42;;;;;;;14.77;6.20;;;;;;;18.17;25.03;99604.75;5016751;28;20045;-71
2022/05/02 05:23:07;;;;;;;14.00;6.40;;;;;;;18.07;24.82;99620.44;5016377;28;20460;-71
2022/05/02 05:26:01;;;;;;;14.90;6.25;;;;;;;18.45;23.94;99616.13;5016558;28;20144;-71
2022/05/02 05:28:40;;;;;;;10.53;5.77;;;;;;;18.64;23.97;99617.94;4984367;28;20099;-70
2022/05/02 05:31:26;;;;;;;10.30;5.65;;;;;;;18.66;23.70;99617.75;4984155;28;20807;-70
2022/05/02 05:34:07;;;;;;;13.05;6.78;;;;;;;18.60;23.65;99611.34;4984056;28;20132;-71
2022/05/02 05:36:47;;;;;;;11.40;6.25;;;;;;;18.85;23.50;99620.38;5034326;28;20049;-70
2022/05/02 05:39:30;;;;;;;16.97;6.00;;;;;;;19.01;23.25;99613.72;5000495;28;20029;-71
2022/05/02 05:42:02;;;;;;;15.75;6.18;;;;;;;18.76;23.24;99591.25;5016484;28;20049;-71
2022/05/02 05:44:27;;;;;;;14.13;5.55;;;;;;;18.98;22.59;99614.97;5016123;28;20519;-71
2022/05/02 05:47:20;;;;;;;14.88;5.97;;;;;;;19.18;22.76;99620.28;5016252;28;20107;-71
2022/05/02 05:50:13;;;;;;;11.93;5.70;;;;;;;19.23;22.30;99610.53;5016368;28;20052;-71
2022/05/02 05:53:00;;;;;;;9.43;5.22;;;;;;;19.30;22.00;99613.19;4999942;28;20064;-70
2022/05/02 05:55:51;;;;;;;12.35;5.85;;;;;;;19.54;21.84;99618.66;4999639;28;20049;-71
2022/05/02 05:58:29;;;;;;;10.27;5.30;;;;;;;19.90;21.37;99610.78;5016366;28;20187;-71
2022/05/02 06:01:09;;;;;;;14.68;5.68;;;;;;;20.28;21.01;99613.41;5032570;28;20085;-71
2022/05/02 06:03:44;;;;;;;14.63;5.00;;;;;;;20.64;20.42;99605.38;4983448;28;20052;-71
2022/05/02 06:06:10;;;;;;;11.13;5.00;;;;;;;20.86;20.04;99603.91;5032929;28;20049;-71
2022/05/02 06:08:37;;;;;;;13.65;5.60;;;;;;;21.00;19.66;99604.63;5016122;28;20045;-72
2022/05/02 06:11:04;;;;;;;17.38;4.88;;;;;;;21.02;19.41;99606.03;5032987;28;20485;-71
2022/05/02 06:13:31;;;;;;;8.10;4.65;;;;;;;21.21;19.36;99604.97;4983296;28;20110;-71
2022/05/02 06:18:46;;;;;;;12.65;4.20;;;;;;;20.95;19.10;99610.69;5005256;28;20565;-71
2022/05/02 06:21:13;;;;;;;10.52;4.55;;;;;;;20.69;19.36;99610.94;4986415;28;20420;-71
2022/05/02 06:23:42;;;;;;;9.40;3.88;;;;;;;20.39;19.86;99598.38;4985905;28;20044;-71
2022/05/02 06:26:09;;;;;;;11.05;4.80;;;;;;;20.31;19.73;99604.06;5002611;28;20473;-71
2022/05/02 06:28:45;;;;;;;11.85;5.20;;;;;;;20.27;20.10;99610.91;5002357;28;20143;-70
2022/05/02 06:31:16;;;;;;;12.75;5.68;;;;;;;19.96;19.71;99601.81;5018527;28;20049;-71
2022/05/02 06:33:44;;;;;;;10.18;4.47;;;;;;;19.92;19.76;99595.22;5051801;28;20053;-71
2022/05/02 06:36:39;;;;;;;9.20;4.57;;;;;;;19.97;19.99;99605.34;5018527;28;20049;-69
2022/05/02 06:39:27;;;;;;;9.70;4.05;;;;;;;19.93;19.87;99586.06;5032002;28;20051;-72
2022/05/02 06:42:18;;;;;;;4.38;2.40;;;;;;;20.11;17.38;99596.91;5034847;28;20048;-71
2022/05/02 06:44:43;;;;;;;6.15;2.40;;;;;;;19.95;17.34;99596.63;5034817;28;20045;-70
2022/05/02 06:47:23;;;;;;;7.75;2.78;;;;;;;20.23;16.89;99594.38;5034540;28;20052;-71
2022/05/02 06:49:54;;;;;;;5.95;2.55;;;;;;;20.26;17.47;99590.41;5034904;28;20071;-71
2022/05/02 06:52:21;;;;;;;;;;;;;;;20.33;17.19;99589.28;5019597;28;20056;-70
2022/05/02 06:55:08;;;;;;;9.32;3.08;;;;;;;20.12;17.13;99562.69;5035069;28;19965;-71
2022/05/02 06:57:53;;;;;;;10.25;3.03;;;;;;;20.41;17.39;99583.63;5034494;28;20099;-71
2022/05/02 07:00:19;;;;;;;5.35;2.60;;;;;;;20.37;17.36;99568.94;5018044;28;20079;-71
2022/05/02 07:03:04;;;;;;;4.28;2.13;;;;;;;20.87;15.55;99578.56;5034456;28;20040;-71
2022/05/02 07:05:33;;;;;;;6.85;2.78;;;;;;;21.21;15.45;99575.25;5034374;28;20049;-71
2022/05/02 07:08:02;;;;;;;5.10;3.20;;;;;;;22.02;14.96;99577.44;5034276;28;20048;-71
2022/05/02 07:10:34;;;;;;;6.53;2.75;;;;;;;23.07;14.58;99582.56;5034447;28;20143;-71
2022/05/02 07:13:30;;;;;;;7.88;2.80;;;;;;;24.09;13.57;99578.84;5018044;28;20044;-71
2022/05/02 07:15:58;;;;;;;8.45;2.55;;;;;;;23.98;13.16;99577.84;4985134;28;20142;-71
2022/05/02 07:18:39;;;;;;;5.18;2.70;;;;;;;25.27;11.93;99560.97;5050803;28;20045;-72
2022/05/02 07:21:23;;;;;;;10.18;2.95;;;;;;;25.89;11.61;99574.97;5017400;28;20531;-73
2022/05/02 07:24:40;;;;;;;6.90;2.78;;;;;;;25.25;11.88;99573.19;5034060;28;20109;-72
2022/05/02 07:27:15;;;;;;;5.10;2.65;;;;;;;26.94;10.65;99577.69;5008084;28;20421;-72
2022/05/02 07:29:42;;;;;;;7.63;2.20;;;;;;;29.03;9.38;99567.22;5033753;28;20416;-72
2022/05/02 07:32:10;;;;;;;6.40;2.25;;;;;;;31.56;7.83;99574.66;5017517;28;20135;-72
2022/05/02 07:34:36;;;;;;;4.32;2.47;;;;;;;33.86;6.50;99580.53;5017237;28;20045;-72
2022/05/02 07:37:02;;;;;;;6.50;2.45;;;;;;;35.82;5.21;99572.44;5017713;28;20090;-72
2022/05/02 07:39:28;;;;;;;6.85;2.83;;;;;;;36.80;4.62;99578.78;5017748;28;20050;-73
2022/05/02 07:41:55;;;;;;;7.32;3.30;;;;;;;38.23;3.76;99569.06;5000999;28;20462;-75
2022/05/02 07:44:23;;;;;;;3.83;2.38;;;;;;;38.97;3.27;99571.66;5017423;28;20531;-72
2022/05/02 07:46:50;;;;;;;4.63;2.58;;;;;;;38.53;3.62;99576.13;5017495;28;20073;-73
2022/05/02 07:49:21;;;;;;;5.25;2.05;;;;;;;37.59;3.77;99565.00;5000940;28;20060;-73
2022/05/02 07:51:51;;;;;;;3.47;2.03;;;;;;;36.79;4.16;99571.66;5000660;28;20037;-71
2022/05/02 07:54:20;;;;;;;;;;;;;;;34.19;5.07;99557.16;5001032;28;20044;-72
2022/05/02 07:57:00;;;;;;;5.32;2.10;;;;;;;30.75;6.50;99552.88;5017078;28;19951;-72
2022/05/02 07:59:30;;;;;;;6.95;2.10;;;;;;;28.75;7.88;99546.81;5049684;28;20051;-72
2022/05/02 08:01:56;;;;;;;;;;;;;;;29.90;7.60;99552.81;5001301;28;20075;-73
2022/05/02 08:04:23;;;;;;;2.72;1.85;;;;;;;32.20;6.38;99565.69;5016888;28;20023;-72
2022/05/02 08:07:37;;;;;;;6.25;1.98;;;;;;;33.29;5.64;99555.66;5016957;28;20049;-72
2022/05/02 08:10:05;;;;;;;3.58;2.13;;;;;;;32.84;5.59;99548.31;5000460;28;20131;-73
2022/05/02 08:12:54;;;;;;;9.48;3.15;;;;;;;33.88;4.99;99536.13;5032797;28;20048;-72
2022/05/02 08:15:38;;;;;;;4.70;2.40;;;;;;;36.65;3.57;99557.16;5000346;28;20459;-72
2022/05/02 08:18:28;;;;;;;3.72;2.15;;;;;;;39.16;2.45;99552.50;5000048;28;20068;-72
2022/05/02 08:20:59;;;;;;;5.13;1.77;;;;;;;39.94;2.42;99559.31;5032952;28;20059;-73
2022/05/02 08:27:16;;;;;;;3.13;1.80;;;;;;;34.12;3.95;99542.19;5049726;28;20526;-72
2022/05/02 08:29:48;;;;;;;2.58;1.65;;;;;;;31.32;5.59;99538.22;5032846;28;20064;-72
2022/05/02 08:32:18;;;;;;;7.93;2.60;;;;;;;29.80;6.45;99531.00;5032766;28;20519;-71
2022/05/02 08:34:45;;;;;;;4.60;2.20;;;;;;;28.72;6.90;99525.50;4983839;28;20041;-72
2022/05/02 08:37:38;;;;;;;5.13;2.50;;;;;;;29.42;7.01;99529.84;5016083;28;20067;-72
2022/05/02 08:40:29;;;;;;;5.72;1.98;;;;;;;32.75;5.14;99517.16;5032272;28;20049;-72
2022/05/02 08:43:29;;;;;;;2.90;2.35;;;;;;;36.38;3.56;99539.00;4983937;28;20036;-72
2022/05/02 08:46:32;;;;;;;4.78;1.77;;;;;;;37.56;2.84;99530.47;5016343;28;20462;-72
2022/05/02 08:52:09;;;;;;;2.97;1.33;;;;;;;35.68;3.65;99497.94;5049482;28;20152;-72
2022/05/02 08:54:48;;;;;;;4.18;1.80;;;;;;;34.31;4.29;99497.81;5049166;28;20072;-72
2022/05/02 08:57:50;;;;;;;5.30;1.50;;;;;;;32.38;4.77;99507.94;5032435;28;20055;-71
2022/05/02 09:00:24;;;;;;;4.65;2.05;;;;;;;31.52;5.57;99502.22;5032369;28;20103;-71
2022/05/02 09:03:02;;;;;;;3.42;1.95;;;;;;;34.17;3.99;99498.75;5016484;28;20147;-71
2022/05/02 09:05:47;;;;;;;3.22;1.80;;;;;;;37.20;2.82;99510.81;5032248;28;20037;-77
2022/05/02 09:08:40;;;;;;;5.45;1.70;;;;;;;39.08;1.96;99493.13;5032337;28;20137;-72
2022/05/02 09:11:07;;;;;;;4.57;1.60;;;;;;;39.47;2.27;99499.91;5065969;28;20041;-72
2022/05/02 09:13:55;;;;;;;5.28;2.10;;;;;;;41.62;1.44;99493.22;5032066;28;20440;-72
2022/05/02 09:16:50;;;;;;;3.88;2.08;;;;;;;42.20;1.28;99488.41;5032035;28;20059;-73
2022/05/02 09:19:40;;;;;;;7.78;1.83;;;;;;;42.89;1.05;99482.47;5032211;28;20073;-73
2022/05/02 09:22:43;;;;;;;6.03;1.90;;;;;;;42.54;1.09;99490.25;5032400;28;20143;-73
2022/05/02 09:25:10;;;;;;;4.78;1.70;;;;;;;42.19;0.99;99484.00;5032116;28;20127;-73
2022/05/02 09:28:01;;;;;;;3.60;2.00;;;;;;;40.15;1.41;99480.03;5015925;28;20040;-71
2022/05/02 09:30:27;;;;;;;;;;;;;;;37.86;2.53;99484.88;5016674;28;20075;-72
2022/05/02 09:32:55;;;;;;;1.83;1.50;;;;;;;36.70;2.74;99477.53;5032083;28;20348;-73
2022/05/02 09:35:34;;;;;;;3.83;3.03;;;;;;;34.60;3.60;99470.59;5032099;28;20135;-72
2022/05/02 09:38:20;;;;;;;3.13;1.58;;;;;;;36.39;2.66;99467.91;5015701;28;20496;-78
2022/05/02 09:40:46;;;;;;;4.47;1.55;;;;;;;38.88;2.05;99466.25;4983208;28;20496;-71
2022/05/02 09:50:00;;;;;;;8.23;1.58;;;;;;;37.37;2.26;99452.53;4936902;28;20580;-73
2022/05/02 09:52:47;;;;;;;4.47;1.73;;;;;;;36.09;2.79;99453.16;5011989;28;20096;-70
2022/05/02 09:58:26;;;;;;;3.00;1.55;;;;;;;38.86;2.29;99445.56;5021205;28;20051;-72
2022/05/02 10:01:17;;;;;;;3.60;1.88;;;;;;;41.08;1.12;99444.97;5035169;28;20959;-70
2022/05/02 10:04:00;;;;;;;9.43;1.50;;;;;;;41.67;1.03;99445.50;5051704;28;20049;-71
2022/05/02 10:06:55;;;;;;;6.35;1.52;;;;;;;38.69;1.78;99435.47;5018477;28;20044;-71
2022/05/02 10:09:35;;;;;;;2.25;1.70;;;;;;;37.16;2.60;99424.00;4974040;28;20119;-72
2022/05/02 10:12:17;;;;;;;5.05;1.70;;;;;;;35.93;3.29;99421.66;5032115;28;20041;-73
2022/05/02 10:15:06;;;;;;;11.40;3.08;;;;;;;36.11;3.18;99420.47;5015316;28;20046;-72
2022/05/02 10:18:05;;;;;;;2.95;2.20;;;;;;;37.16;2.84;99415.69;5031737;28;20532;-73
2022/05/02 10:20:45;;;;;;;2.80;1.58;;;;;;;38.65;1.98;99426.22;5015252;28;20136;-74
2022/05/02 10:23:22;;;;;;;2.67;1.98;;;;;;;37.71;2.15;99398.75;5014770;28;20045;-71
2022/05/02 10:26:06;;;;;;;2.58;1.90;;;;;;;38.64;2.20;99411.53;5032978;28;20049;-71
2022/05/02 10:28:48;;;;;;;3.35;1.45;;;;;;;39.55;1.87;99412.75;5001010;28;20501;-73
2022/05/02 10:31:20;;;;;;;3.90;1.75;;;;;;;40.24;1.50;99404.72;4998723;28;20136;-73
2022/05/02 10:33:51;;;;;;;5.53;1.88;;;;;;;40.85;1.36;99418.97;5015681;28;20045;-72
2022/05/02 10:36:28;;;;;;;3.53;1.60;;;;;;;41.96;0.67;99410.59;4999097;28;20042;-71
2022/05/02 10:39:01;;;;;;;7.55;5.70;;;;;;;42.72;0.85;99404.75;5032670;28;20045;-71
2022/05/02 10:41:27;;;;;;;2.85;1.92;;;;;;;43.58;0.34;99391.59;4998759;28;20072;-70
2022/05/02 10:44:01;;;;;;;2.60;1.77;;;;;;;42.61;0.56;99396.19;5031406;28;20171;-72
2022/05/02 10:46:29;;;;;;;3.28;2.72;;;;;;;41.61;0.76;99386.41;5032786;28;20131;-73
2022/05/02 10:49:02;;;;;;;3.83;2.60;;;;;;;41.69;0.80;99390.97;5033789;28;20136;-72
2022/05/02 10:51:51;;;;;;;7.40;5.63;;;;;;;41.07;1.01;99384.84;5015386;28;20048;-72
2022/05/02 10:54:29;;;;;;;3.53;2.40;;;;;;;41.50;1.16;99377.03;5032924;28;20128;-73
2022/05/02 10:56:58;;;;;;;4.55;3.03;;;;;;;42.17;0.52;99381.09;5049277;28;20059;-73
2022/05/02 10:59:30;;;;;;;3.88;1.80;;;;;;;42.34;0.59;99374.19;4999651;28;20143;-73
2022/05/02 11:02:09;;;;;;;5.65;2.40;;;;;;;42.08;0.84;99368.56;5015608;28;20450;-73
2022/05/02 11:05:06;;;;;;;7.28;2.90;;;;;;;41.92;0.80;99360.31;5033146;28;20056;-73
2022/05/02 11:07:36;;;;;;;5.40;2.00;;;;;;;41.80;1.04;99340.94;5051481;28;20404;-71
2022/05/02 11:10:05;;;;;;;3.97;1.65;;;;;;;41.52;0.78;99354.34;5000394;28;20833;-72
2022/05/02 11:12:49;;;;;;;5.38;3.13;;;;;;;39.96;1.53;99362.25;5016336;28;20051;-72
2022/05/02 11:15:21;;;;;;;4.80;2.10;;;;;;;36.89;2.90;99327.63;5032671;28;20481;-71
2022/05/02 11:18:08;;;;;;;5.93;3.40;;;;;;;35.63;3.36;99346.09;5022801;28;20393;-73
2022/05/02 11:20:54;;;;;;;2.45;1.90;;;;;;;34.54;3.62;99309.06;5037185;28;20036;-72
2022/05/02 11:23:31;;;;;;;3.90;2.03;;;;;;;33.01;4.35;99342.16;5052562;28;20653;-73
2022/05/02 11:26:14;;;;;;;5.93;2.35;;;;;;;31.54;4.98;99315.22;5035639;28;20044;-73
2022/05/02 11:29:00;;;;;;;4.80;2.63;;;;;;;30.47;5.68;99309.75;5019540;28;20051;-74
2022/05/02 11:31:33;;;;;;;5.35;2.75;;;;;;;29.12;6.58;99305.72;5053380;28;20411;-74
2022/05/02 11:34:01;;;;;;;7.03;3.83;;;;;;;27.13;7.34;99300.72;5019677;28;20090;-71
2022/05/02 11:36:32;;;;;;;4.85;2.15;;;;;;;24.97;8.48;99320.66;5035470;28;20139;-74
2022/05/02 11:38:57;;;;;;;;;;;;;;;24.84;8.92;99316.47;5019685;28;20044;-74
2022/05/02 11:41:24;;;;;;;7.50;4.03;;;;;;;25.00;8.69;99315.53;5052695;28;19923;-74
2022/05/02 11:44:07;;;;;;;11.15;5.30;;;;;;;24.54;9.20;99316.97;5035461;28;20610;-75
2022/05/02 11:46:57;;;;;;;4.93;2.90;;;;;;;24.70;9.75;99304.38;5035474;28;20044;-73
2022/05/02 11:49:49;;;;;;;4.50;2.00;;;;;;;24.85;9.51;99293.66;5029006;28;20056;-74
2022/05/02 11:52:29;;;;;;;5.95;1.75;;;;;;;25.28;9.29;99279.88;5036273;28;20051;-74
2022/05/02 11:54:57;;;;;;;4.43;2.33;;;;;;;25.31;9.05;99281.25;5052727;28;20048;-74
2022/05/02 11:57:46;;;;;;;2.25;1.80;;;;;;;25.46;8.85;99287.66;5052917;28;20416;-74
2022/05/02 12:00:14;;;;;;;7.50;3.15;;;;;;;25.50;8.75;99271.59;5014110;28;20056;-74
2022/05/02 12:02:44;;;;;;;5.45;2.70;;;;;;;25.64;8.87;99283.66;5016591;28;20052;-73
2022/05/02 12:05:24;;;;;;;5.47;2.15;;;;;;;24.71;9.78;99276.13;5048788;28;20555;-73
2022/05/02 12:08:01;;;;;;;2.85;1.98;;;;;;;24.50;9.62;99282.44;5051118;28;20048;-73
2022/05/02 12:11:22;;;;;;;8.98;2.30;;;;;;;24.31;10.13;99273.81;5035518;28;20072;-75
2022/05/02 12:13:51;;;;;;;2.53;1.90;;;;;;;24.58;10.07;99276.53;4990039;28;20079;-74
2022/05/02 12:16:18;;;;;;;2.85;2.00;;;;;;;24.54;9.64;99272.72;5034296;28;20057;-73
2022/05/02 12:18:45;;;;;;;5.53;2.25;;;;;;;24.40;9.80;99272.28;5033039;28;20110;-74
2022/05/02 12:21:23;;;;;;;6.10;2.42;;;;;;;24.45;9.81;99264.19;5017473;28;20488;-74
2022/05/02 12:23:51;;;;;;;8.27;2.00;;;;;;;24.23;10.13;99262.59;5016196;28;20496;-73
2022/05/02 12:26:25;;;;;;;3.08;2.00;;;;;;;24.01;10.59;99259.09;5030831;28;20048;-72
2022/05/02 12:29:04;;;;;;;7.00;1.85;;;;;;;23.43;11.32;99246.13;5014701;28;20572;-73
2022/05/02 12:31:32;;;;;;;3.72;1.70;;;;;;;23.22;11.67;99244.97;5014628;28;20040;-72